sensor_id;sensor_type;location;lat;lon;timestamp;temperature;humidity
18189;DHT22;9219;50.396;8.546;2023-05-10T00:01:14;13.10;99.90
18189;DHT22;9219;50.396;8.546;2023-05-10T00:03:41;13.10;99.90
18189;DHT22;9219;50.396;8.546;2023-05-10T00:06:09;12.90;99.90
18189;DHT22;9219;50.396;8.546;2023-05-10T00:08:38;12.70;99.90
18189;DHT22;9219;50.396;8.546;2023-05-10T00:11:23;12.60;99.90
18189;DHT22;9219;50.396;8.546;2023-05-10T00:13:50;12.50;99.90
18189;DHT22;9219;50.396;8.546;2023-05-10T00:16:18;12.40;99.90
18189;DHT22;9219;50.396;8.546;2023-05-10T00:18:46;12.40;99.90
18189;DHT22;9219;50.396;8.546;2023-05-10T00:21:15;12.40;99.90
18189;DHT22;9219;50.396;8.546;2023-05-10T00:23:42;12.50;99.90
18189;DHT22;9219;50.396;8.546;2023-05-10T00:26:11;12.30;99.90
18189;DHT22;9219;50.396;8.546;2023-05-10T00:33:57;12.10;99.90
18189;DHT22;9219;50.396;8.546;2023-05-10T00:36:25;12.10;99.90
18189;DHT22;9219;50.396;8.546;2023-05-10T00:38:52;11.90;99.90
18189;DHT22;9219;50.396;8.546;2023-05-10T00:41:19;12.00;99.90
18189;DHT22;9219;50.396;8.546;2023-05-10T00:43:47;11.90;99.90
18189;DHT22;9219;50.396;8.546;2023-05-10T00:46:14;11.80;99.90
18189;DHT22;9219;50.396;8.546;2023-05-10T00:48:42;11.90;99.90
18189;DHT22;9219;50.396;8.546;2023-05-10T00:51:11;11.90;99.90
18189;DHT22;9219;50.396;8.546;2023-05-10T00:53:53;12.00;99.90
18189;DHT22;9219;50.396;8.546;2023-05-10T00:56:22;12.10;99.90
18189;DHT22;9219;50.396;8.546;2023-05-10T00:58:51;12.10;99.90
18189;DHT22;9219;50.396;8.546;2023-05-10T01:01:19;11.90;99.90
18189;DHT22;9219;50.396;8.546;2023-05-10T01:03:46;11.80;99.90
18189;DHT22;9219;50.396;8.546;2023-05-10T01:06:14;11.80;99.90
18189;DHT22;9219;50.396;8.546;2023-05-10T01:08:42;11.90;99.90
18189;DHT22;9219;50.396;8.546;2023-05-10T01:13:55;11.90;99.90
18189;DHT22;9219;50.396;8.546;2023-05-10T01:16:23;12.00;99.90
18189;DHT22;9219;50.396;8.546;2023-05-10T01:18:51;12.00;99.90
18189;DHT22;9219;50.396;8.546;2023-05-10T01:21:27;12.10;99.90
18189;DHT22;9219;50.396;8.546;2023-05-10T01:27:29;11.80;99.90
18189;DHT22;9219;50.396;8.546;2023-05-10T01:38:28;11.90;99.90
18189;DHT22;9219;50.396;8.546;2023-05-10T01:41:04;11.50;99.90
18189;DHT22;9219;50.396;8.546;2023-05-10T01:43:41;11.50;99.90
18189;DHT22;9219;50.396;8.546;2023-05-10T01:46:22;11.60;99.90
18189;DHT22;9219;50.396;8.546;2023-05-10T01:48:53;11.70;99.90
18189;DHT22;9219;50.396;8.546;2023-05-10T01:51:23;11.80;99.90
18189;DHT22;9219;50.396;8.546;2023-05-10T01:53:58;11.70;99.90
18189;DHT22;9219;50.396;8.546;2023-05-10T02:01:32;12.00;99.90
18189;DHT22;9219;50.396;8.546;2023-05-10T02:04:01;11.80;99.90
18189;DHT22;9219;50.396;8.546;2023-05-10T02:06:30;11.60;99.90
18189;DHT22;9219;50.396;8.546;2023-05-10T02:09:00;11.70;99.90
18189;DHT22;9219;50.396;8.546;2023-05-10T02:11:29;11.70;99.90
18189;DHT22;9219;50.396;8.546;2023-05-10T02:13:58;11.60;99.90
18189;DHT22;9219;50.396;8.546;2023-05-10T02:16:27;11.70;99.90
18189;DHT22;9219;50.396;8.546;2023-05-10T02:18:59;11.90;99.90
18189;DHT22;9219;50.396;8.546;2023-05-10T02:26:33;11.80;99.90
18189;DHT22;9219;50.396;8.546;2023-05-10T02:29:02;11.60;99.90
18189;DHT22;9219;50.396;8.546;2023-05-10T02:31:31;11.60;99.90
18189;DHT22;9219;50.396;8.546;2023-05-10T02:33:59;11.70;99.90
18189;DHT22;9219;50.396;8.546;2023-05-10T02:36:28;11.60;99.90
18189;DHT22;9219;50.396;8.546;2023-05-10T02:38:57;11.70;99.90
18189;DHT22;9219;50.396;8.546;2023-05-10T02:41:26;11.70;99.90
18189;DHT22;9219;50.396;8.546;2023-05-10T02:48:55;11.70;99.90
18189;DHT22;9219;50.396;8.546;2023-05-10T02:51:25;11.60;99.90
18189;DHT22;9219;50.396;8.546;2023-05-10T02:53:53;11.70;99.90
18189;DHT22;9219;50.396;8.546;2023-05-10T02:56:24;11.70;99.90
18189;DHT22;9219;50.396;8.546;2023-05-10T02:58:52;11.70;99.90
18189;DHT22;9219;50.396;8.546;2023-05-10T03:01:19;11.80;99.90
18189;DHT22;9219;50.396;8.546;2023-05-10T03:03:47;11.60;99.90
18189;DHT22;9219;50.396;8.546;2023-05-10T03:09:02;11.70;99.90
18189;DHT22;9219;50.396;8.546;2023-05-10T03:11:40;11.50;99.90
18189;DHT22;9219;50.396;8.546;2023-05-10T03:14:19;11.80;99.90
18189;DHT22;9219;50.396;8.546;2023-05-10T03:16:55;11.70;99.90
18189;DHT22;9219;50.396;8.546;2023-05-10T03:19:27;12.00;99.90
18189;DHT22;9219;50.396;8.546;2023-05-10T03:21:59;12.00;99.90
18189;DHT22;9219;50.396;8.546;2023-05-10T03:24:32;11.80;99.90
18189;DHT22;9219;50.396;8.546;2023-05-10T03:32:06;11.90;99.90
18189;DHT22;9219;50.396;8.546;2023-05-10T03:34:34;11.70;99.90
18189;DHT22;9219;50.396;8.546;2023-05-10T03:37:08;11.80;99.90
18189;DHT22;9219;50.396;8.546;2023-05-10T03:39:36;12.20;99.90
18189;DHT22;9219;50.396;8.546;2023-05-10T03:42:03;12.30;99.90
18189;DHT22;9219;50.396;8.546;2023-05-10T03:44:31;12.40;99.90
18189;DHT22;9219;50.396;8.546;2023-05-10T03:46:59;12.70;99.90
18189;DHT22;9219;50.396;8.546;2023-05-10T03:54:32;12.50;99.90
18189;DHT22;9219;50.396;8.546;2023-05-10T03:57:00;12.50;99.90
18189;DHT22;9219;50.396;8.546;2023-05-10T03:59:29;12.60;99.90
18189;DHT22;9219;50.396;8.546;2023-05-10T04:01:56;12.50;99.90
18189;DHT22;9219;50.396;8.546;2023-05-10T04:04:23;12.40;99.90
18189;DHT22;9219;50.396;8.546;2023-05-10T04:06:50;12.50;99.90
18189;DHT22;9219;50.396;8.546;2023-05-10T04:09:17;12.50;99.90
18189;DHT22;9219;50.396;8.546;2023-05-10T04:15:02;12.30;99.90
18189;DHT22;9219;50.396;8.546;2023-05-10T04:17:29;12.40;99.90
18189;DHT22;9219;50.396;8.546;2023-05-10T04:19:57;12.40;99.90
18189;DHT22;9219;50.396;8.546;2023-05-10T04:22:24;12.30;99.90
18189;DHT22;9219;50.396;8.546;2023-05-10T04:24:52;12.20;99.90
18189;DHT22;9219;50.396;8.546;2023-05-10T04:27:19;12.10;99.90
18189;DHT22;9219;50.396;8.546;2023-05-10T04:29:46;11.80;99.90
18189;DHT22;9219;50.396;8.546;2023-05-10T04:35:27;12.10;99.90
18189;DHT22;9219;50.396;8.546;2023-05-10T04:37:57;12.30;99.90
18189;DHT22;9219;50.396;8.546;2023-05-10T04:40:24;12.20;99.90
18189;DHT22;9219;50.396;8.546;2023-05-10T04:42:52;12.30;99.90
18189;DHT22;9219;50.396;8.546;2023-05-10T04:45:20;12.60;99.90
18189;DHT22;9219;50.396;8.546;2023-05-10T04:47:48;12.30;99.90
18189;DHT22;9219;50.396;8.546;2023-05-10T04:50:15;12.20;99.90
18189;DHT22;9219;50.396;8.546;2023-05-10T04:55:45;12.80;99.90
18189;DHT22;9219;50.396;8.546;2023-05-10T04:58:13;13.00;99.90
18189;DHT22;9219;50.396;8.546;2023-05-10T05:00:40;12.80;99.90
18189;DHT22;9219;50.396;8.546;2023-05-10T05:03:08;13.10;99.90
18189;DHT22;9219;50.396;8.546;2023-05-10T05:05:36;13.40;99.90
18189;DHT22;9219;50.396;8.546;2023-05-10T05:08:03;13.30;99.90
18189;DHT22;9219;50.396;8.546;2023-05-10T05:10:31;13.30;99.90
18189;DHT22;9219;50.396;8.546;2023-05-10T05:19:03;13.50;99.90
18189;DHT22;9219;50.396;8.546;2023-05-10T05:21:30;13.10;99.90
18189;DHT22;9219;50.396;8.546;2023-05-10T05:23:58;12.70;99.90
18189;DHT22;9219;50.396;8.546;2023-05-10T05:26:26;12.40;99.90
18189;DHT22;9219;50.396;8.546;2023-05-10T05:28:53;12.50;99.90
18189;DHT22;9219;50.396;8.546;2023-05-10T05:31:21;12.40;99.90
18189;DHT22;9219;50.396;8.546;2023-05-10T05:33:48;12.40;99.90
18189;DHT22;9219;50.396;8.546;2023-05-10T05:39:19;12.40;99.90
18189;DHT22;9219;50.396;8.546;2023-05-10T05:41:47;11.80;99.90
18189;DHT22;9219;50.396;8.546;2023-05-10T05:44:14;11.70;99.90
18189;DHT22;9219;50.396;8.546;2023-05-10T05:46:41;12.00;99.90
18189;DHT22;9219;50.396;8.546;2023-05-10T05:49:08;12.10;99.90
18189;DHT22;9219;50.396;8.546;2023-05-10T05:51:36;12.10;99.90
18189;DHT22;9219;50.396;8.546;2023-05-10T05:54:03;12.10;99.90
18189;DHT22;9219;50.396;8.546;2023-05-10T05:59:11;12.50;99.90
18189;DHT22;9219;50.396;8.546;2023-05-10T06:01:39;12.30;99.90
18189;DHT22;9219;50.396;8.546;2023-05-10T06:04:06;12.30;99.90
18189;DHT22;9219;50.396;8.546;2023-05-10T06:06:34;12.50;99.90
18189;DHT22;9219;50.396;8.546;2023-05-10T06:09:01;12.50;99.90
18189;DHT22;9219;50.396;8.546;2023-05-10T06:11:29;12.70;99.90
18189;DHT22;9219;50.396;8.546;2023-05-10T06:13:59;12.50;99.90
18189;DHT22;9219;50.396;8.546;2023-05-10T06:19:22;12.20;99.90
18189;DHT22;9219;50.396;8.546;2023-05-10T06:21:50;12.40;99.90
18189;DHT22;9219;50.396;8.546;2023-05-10T06:24:19;12.60;99.90
18189;DHT22;9219;50.396;8.546;2023-05-10T06:26:47;12.80;99.90
18189;DHT22;9219;50.396;8.546;2023-05-10T06:29:16;12.60;99.90
18189;DHT22;9219;50.396;8.546;2023-05-10T06:31:43;12.20;99.90
18189;DHT22;9219;50.396;8.546;2023-05-10T06:34:11;12.20;99.90
18189;DHT22;9219;50.396;8.546;2023-05-10T06:36:39;12.30;99.90
18189;DHT22;9219;50.396;8.546;2023-05-10T06:44:12;12.40;99.90
18189;DHT22;9219;50.396;8.546;2023-05-10T06:46:40;12.60;99.90
18189;DHT22;9219;50.396;8.546;2023-05-10T06:49:08;12.60;99.90
18189;DHT22;9219;50.396;8.546;2023-05-10T06:51:38;12.40;99.90
18189;DHT22;9219;50.396;8.546;2023-05-10T06:54:07;12.50;99.90
18189;DHT22;9219;50.396;8.546;2023-05-10T06:56:34;12.50;99.90
18189;DHT22;9219;50.396;8.546;2023-05-10T06:59:02;12.60;99.90
18189;DHT22;9219;50.396;8.546;2023-05-10T07:04:10;12.70;99.90
18189;DHT22;9219;50.396;8.546;2023-05-10T07:06:38;12.80;99.90
18189;DHT22;9219;50.396;8.546;2023-05-10T07:09:05;12.70;99.90
18189;DHT22;9219;50.396;8.546;2023-05-10T07:11:34;12.80;99.90
18189;DHT22;9219;50.396;8.546;2023-05-10T07:14:01;12.90;99.90
18189;DHT22;9219;50.396;8.546;2023-05-10T07:16:28;12.90;99.90
18189;DHT22;9219;50.396;8.546;2023-05-10T07:18:59;12.50;99.90
18189;DHT22;9219;50.396;8.546;2023-05-10T07:21:27;12.40;99.90
18189;DHT22;9219;50.396;8.546;2023-05-10T07:29:00;12.50;99.90
18189;DHT22;9219;50.396;8.546;2023-05-10T07:31:30;12.40;99.90
18189;DHT22;9219;50.396;8.546;2023-05-10T07:33:58;12.50;99.90
18189;DHT22;9219;50.396;8.546;2023-05-10T07:36:26;12.70;99.90
18189;DHT22;9219;50.396;8.546;2023-05-10T07:38:54;12.70;99.90
18189;DHT22;9219;50.396;8.546;2023-05-10T07:41:21;12.70;99.90
18189;DHT22;9219;50.396;8.546;2023-05-10T07:43:48;12.90;99.90
18189;DHT22;9219;50.396;8.546;2023-05-10T07:46:17;12.80;99.90
18189;DHT22;9219;50.396;8.546;2023-05-10T07:53:45;13.00;99.90
18189;DHT22;9219;50.396;8.546;2023-05-10T07:56:23;13.20;99.90
18189;DHT22;9219;50.396;8.546;2023-05-10T07:58:53;13.20;99.90
18189;DHT22;9219;50.396;8.546;2023-05-10T08:01:21;13.50;99.90
18189;DHT22;9219;50.396;8.546;2023-05-10T08:03:48;13.30;99.90
18189;DHT22;9219;50.396;8.546;2023-05-10T08:06:17;13.10;99.90
18189;DHT22;9219;50.396;8.546;2023-05-10T08:08:47;13.30;99.90
18189;DHT22;9219;50.396;8.546;2023-05-10T08:14:16;14.00;99.90
18189;DHT22;9219;50.396;8.546;2023-05-10T08:16:44;14.20;99.90
18189;DHT22;9219;50.396;8.546;2023-05-10T08:19:11;14.00;99.90
18189;DHT22;9219;50.396;8.546;2023-05-10T08:21:38;13.40;99.90
18189;DHT22;9219;50.396;8.546;2023-05-10T08:24:06;13.30;99.90
18189;DHT22;9219;50.396;8.546;2023-05-10T08:26:34;13.40;99.90
18189;DHT22;9219;50.396;8.546;2023-05-10T08:29:01;13.50;99.90
18189;DHT22;9219;50.396;8.546;2023-05-10T08:31:29;13.90;99.90
18189;DHT22;9219;50.396;8.546;2023-05-10T08:39:02;13.60;99.90
18189;DHT22;9219;50.396;8.546;2023-05-10T08:41:39;13.30;99.90
18189;DHT22;9219;50.396;8.546;2023-05-10T08:44:08;13.50;99.90
18189;DHT22;9219;50.396;8.546;2023-05-10T08:46:37;13.20;99.90
18189;DHT22;9219;50.396;8.546;2023-05-10T08:49:07;12.90;99.90
18189;DHT22;9219;50.396;8.546;2023-05-10T08:51:36;12.90;99.90
18189;DHT22;9219;50.396;8.546;2023-05-10T08:54:10;13.00;99.90
18189;DHT22;9219;50.396;8.546;2023-05-10T08:59:17;13.40;99.90
18189;DHT22;9219;50.396;8.546;2023-05-10T09:01:45;13.70;99.90
18189;DHT22;9219;50.396;8.546;2023-05-10T09:04:13;14.00;99.90
18189;DHT22;9219;50.396;8.546;2023-05-10T09:06:41;13.90;99.90
18189;DHT22;9219;50.396;8.546;2023-05-10T09:09:08;13.80;99.90
18189;DHT22;9219;50.396;8.546;2023-05-10T09:11:36;14.00;99.90
18189;DHT22;9219;50.396;8.546;2023-05-10T09:14:04;14.10;99.90
18189;DHT22;9219;50.396;8.546;2023-05-10T09:16:33;14.20;99.90
18189;DHT22;9219;50.396;8.546;2023-05-10T09:23:33;14.30;99.90
18189;DHT22;9219;50.396;8.546;2023-05-10T09:26:05;14.30;99.90
18189;DHT22;9219;50.396;8.546;2023-05-10T09:28:49;14.50;99.90
18189;DHT22;9219;50.396;8.546;2023-05-10T09:31:17;14.60;99.90
18189;DHT22;9219;50.396;8.546;2023-05-10T09:33:45;14.80;99.90
18189;DHT22;9219;50.396;8.546;2023-05-10T09:36:14;14.80;99.90
18189;DHT22;9219;50.396;8.546;2023-05-10T09:38:49;14.50;99.90
18189;DHT22;9219;50.396;8.546;2023-05-10T09:44:11;14.40;99.90
18189;DHT22;9219;50.396;8.546;2023-05-10T09:46:39;14.20;99.90
18189;DHT22;9219;50.396;8.546;2023-05-10T09:49:07;14.30;99.90
18189;DHT22;9219;50.396;8.546;2023-05-10T09:51:34;14.70;99.90
18189;DHT22;9219;50.396;8.546;2023-05-10T09:54:10;14.70;99.90
18189;DHT22;9219;50.396;8.546;2023-05-10T09:56:37;14.90;99.90
18189;DHT22;9219;50.396;8.546;2023-05-10T09:59:10;14.90;99.90
18189;DHT22;9219;50.396;8.546;2023-05-10T10:01:39;14.60;99.90
18189;DHT22;9219;50.396;8.546;2023-05-10T10:04:25;14.40;99.90
18189;DHT22;9219;50.396;8.546;2023-05-10T10:07:01;14.10;99.90
18189;DHT22;9219;50.396;8.546;2023-05-10T10:09:29;14.40;99.90
18189;DHT22;9219;50.396;8.546;2023-05-10T10:11:57;14.30;99.90
18189;DHT22;9219;50.396;8.546;2023-05-10T10:14:25;14.80;99.90
18189;DHT22;9219;50.396;8.546;2023-05-10T10:16:53;14.70;99.90
18189;DHT22;9219;50.396;8.546;2023-05-10T10:19:34;14.60;99.90
18189;DHT22;9219;50.396;8.546;2023-05-10T10:24:43;14.90;99.90
18189;DHT22;9219;50.396;8.546;2023-05-10T10:27:21;15.60;99.90
18189;DHT22;9219;50.396;8.546;2023-05-10T10:30:00;15.50;99.90
18189;DHT22;9219;50.396;8.546;2023-05-10T10:32:38;15.00;99.90
18189;DHT22;9219;50.396;8.546;2023-05-10T10:35:10;14.70;99.90
18189;DHT22;9219;50.396;8.546;2023-05-10T10:37:45;14.30;99.90
18189;DHT22;9219;50.396;8.546;2023-05-10T10:40:35;14.10;99.90
18189;DHT22;9219;50.396;8.546;2023-05-10T10:48:33;13.80;99.90
18189;DHT22;9219;50.396;8.546;2023-05-10T10:51:06;13.70;99.90
18189;DHT22;9219;50.396;8.546;2023-05-10T10:53:38;13.90;99.90
18189;DHT22;9219;50.396;8.546;2023-05-10T10:56:09;14.10;99.90
18189;DHT22;9219;50.396;8.546;2023-05-10T10:58:37;14.40;99.90
18189;DHT22;9219;50.396;8.546;2023-05-10T11:01:13;14.40;99.90
18189;DHT22;9219;50.396;8.546;2023-05-10T11:11:24;13.50;99.90
18189;DHT22;9219;50.396;8.546;2023-05-10T11:13:51;13.90;99.90
18189;DHT22;9219;50.396;8.546;2023-05-10T11:16:21;13.80;99.90
18189;DHT22;9219;50.396;8.546;2023-05-10T11:18:58;14.00;99.90
18189;DHT22;9219;50.396;8.546;2023-05-10T11:21:25;14.00;99.90
18189;DHT22;9219;50.396;8.546;2023-05-10T11:23:54;14.10;99.90
18189;DHT22;9219;50.396;8.546;2023-05-10T11:26:24;13.90;99.90
18189;DHT22;9219;50.396;8.546;2023-05-10T11:33:58;13.70;99.90
18189;DHT22;9219;50.396;8.546;2023-05-10T11:36:29;13.80;99.90
18189;DHT22;9219;50.396;8.546;2023-05-10T11:39:01;13.90;99.90
18189;DHT22;9219;50.396;8.546;2023-05-10T11:41:30;14.10;99.90
18189;DHT22;9219;50.396;8.546;2023-05-10T11:43:58;14.60;99.90
18189;DHT22;9219;50.396;8.546;2023-05-10T11:46:27;14.50;99.90
18189;DHT22;9219;50.396;8.546;2023-05-10T11:49:01;14.80;99.90
18189;DHT22;9219;50.396;8.546;2023-05-10T11:54:54;14.60;99.90
18189;DHT22;9219;50.396;8.546;2023-05-10T11:57:26;14.40;99.90
18189;DHT22;9219;50.396;8.546;2023-05-10T11:59:54;14.10;99.90
18189;DHT22;9219;50.396;8.546;2023-05-10T12:02:24;13.90;99.90
18189;DHT22;9219;50.396;8.546;2023-05-10T12:04:52;14.00;99.90
18189;DHT22;9219;50.396;8.546;2023-05-10T12:07:19;13.90;99.90
18189;DHT22;9219;50.396;8.546;2023-05-10T12:10:05;14.00;99.90
18189;DHT22;9219;50.396;8.546;2023-05-10T12:17:48;13.80;99.90
18189;DHT22;9219;50.396;8.546;2023-05-10T12:20:18;14.00;99.90
18189;DHT22;9219;50.396;8.546;2023-05-10T12:22:47;14.10;99.90
18189;DHT22;9219;50.396;8.546;2023-05-10T12:25:15;14.20;99.90
18189;DHT22;9219;50.396;8.546;2023-05-10T12:27:51;14.40;99.90
18189;DHT22;9219;50.396;8.546;2023-05-10T12:30:20;14.50;99.90
18189;DHT22;9219;50.396;8.546;2023-05-10T12:32:50;14.80;99.90
18189;DHT22;9219;50.396;8.546;2023-05-10T12:37:57;14.90;99.90
18189;DHT22;9219;50.396;8.546;2023-05-10T12:40:25;14.60;99.90
18189;DHT22;9219;50.396;8.546;2023-05-10T12:42:52;14.50;99.90
18189;DHT22;9219;50.396;8.546;2023-05-10T12:45:19;14.70;99.90
18189;DHT22;9219;50.396;8.546;2023-05-10T12:47:48;14.80;99.90
18189;DHT22;9219;50.396;8.546;2023-05-10T12:50:16;14.70;99.90
18189;DHT22;9219;50.396;8.546;2023-05-10T12:52:43;14.80;99.90
18189;DHT22;9219;50.396;8.546;2023-05-10T13:00:10;15.20;99.90
18189;DHT22;9219;50.396;8.546;2023-05-10T13:02:38;15.00;99.90
18189;DHT22;9219;50.396;8.546;2023-05-10T13:05:06;14.80;99.90
18189;DHT22;9219;50.396;8.546;2023-05-10T13:07:34;15.00;99.90
18189;DHT22;9219;50.396;8.546;2023-05-10T13:10:01;14.90;99.90
18189;DHT22;9219;50.396;8.546;2023-05-10T13:12:28;14.80;99.90
18189;DHT22;9219;50.396;8.546;2023-05-10T13:14:56;15.00;99.90
18189;DHT22;9219;50.396;8.546;2023-05-10T13:20:07;15.40;99.90
18189;DHT22;9219;50.396;8.546;2023-05-10T13:22:36;15.70;99.90
18189;DHT22;9219;50.396;8.546;2023-05-10T13:25:07;15.60;99.90
18189;DHT22;9219;50.396;8.546;2023-05-10T13:27:34;15.50;99.90
18189;DHT22;9219;50.396;8.546;2023-05-10T13:30:02;15.40;99.90
18189;DHT22;9219;50.396;8.546;2023-05-10T13:32:31;15.40;99.90
18189;DHT22;9219;50.396;8.546;2023-05-10T13:34:59;15.50;99.90
18189;DHT22;9219;50.396;8.546;2023-05-10T13:40:10;16.20;99.90
18189;DHT22;9219;50.396;8.546;2023-05-10T13:42:38;15.90;99.90
18189;DHT22;9219;50.396;8.546;2023-05-10T13:45:06;15.90;99.90
18189;DHT22;9219;50.396;8.546;2023-05-10T13:47:34;16.30;99.90
18189;DHT22;9219;50.396;8.546;2023-05-10T13:50:02;16.40;99.90
18189;DHT22;9219;50.396;8.546;2023-05-10T13:52:31;16.30;99.90
18189;DHT22;9219;50.396;8.546;2023-05-10T13:55:04;16.50;99.90
18189;DHT22;9219;50.396;8.546;2023-05-10T14:00:16;16.70;99.90
18189;DHT22;9219;50.396;8.546;2023-05-10T14:02:44;16.80;99.90
18189;DHT22;9219;50.396;8.546;2023-05-10T14:05:12;17.00;99.90
18189;DHT22;9219;50.396;8.546;2023-05-10T14:07:39;16.50;99.90
18189;DHT22;9219;50.396;8.546;2023-05-10T14:10:07;16.60;99.90
18189;DHT22;9219;50.396;8.546;2023-05-10T14:12:35;17.10;99.90
18189;DHT22;9219;50.396;8.546;2023-05-10T14:15:03;16.80;99.90
18189;DHT22;9219;50.396;8.546;2023-05-10T14:20:12;16.50;99.90
18189;DHT22;9219;50.396;8.546;2023-05-10T14:22:40;15.80;99.90
18189;DHT22;9219;50.396;8.546;2023-05-10T14:25:08;15.50;99.90
18189;DHT22;9219;50.396;8.546;2023-05-10T14:27:36;15.40;99.90
18189;DHT22;9219;50.396;8.546;2023-05-10T14:30:05;15.60;99.90
18189;DHT22;9219;50.396;8.546;2023-05-10T14:32:36;15.70;99.90
18189;DHT22;9219;50.396;8.546;2023-05-10T14:35:04;15.70;99.90
18189;DHT22;9219;50.396;8.546;2023-05-10T14:40:35;15.60;99.90
18189;DHT22;9219;50.396;8.546;2023-05-10T14:43:03;15.60;99.90
18189;DHT22;9219;50.396;8.546;2023-05-10T14:45:30;15.70;99.90
18189;DHT22;9219;50.396;8.546;2023-05-10T14:48:00;15.30;99.90
18189;DHT22;9219;50.396;8.546;2023-05-10T14:50:31;15.40;99.90
18189;DHT22;9219;50.396;8.546;2023-05-10T14:53:03;15.20;99.90
18189;DHT22;9219;50.396;8.546;2023-05-10T14:55:31;15.00;99.90
18189;DHT22;9219;50.396;8.546;2023-05-10T15:00:47;14.90;99.90
18189;DHT22;9219;50.396;8.546;2023-05-10T15:03:15;15.00;99.90
18189;DHT22;9219;50.396;8.546;2023-05-10T15:05:43;14.90;99.90
18189;DHT22;9219;50.396;8.546;2023-05-10T15:08:11;14.70;99.90
18189;DHT22;9219;50.396;8.546;2023-05-10T15:10:40;15.00;99.90
18189;DHT22;9219;50.396;8.546;2023-05-10T15:13:08;15.00;99.90
18189;DHT22;9219;50.396;8.546;2023-05-10T15:15:36;14.60;99.90
18189;DHT22;9219;50.396;8.546;2023-05-10T15:22:58;15.00;99.90
18189;DHT22;9219;50.396;8.546;2023-05-10T15:25:27;15.10;99.90
18189;DHT22;9219;50.396;8.546;2023-05-10T15:27:55;15.00;99.90
18189;DHT22;9219;50.396;8.546;2023-05-10T15:30:22;15.30;99.90
18189;DHT22;9219;50.396;8.546;2023-05-10T15:32:50;15.40;99.90
18189;DHT22;9219;50.396;8.546;2023-05-10T15:35:18;15.40;99.90
18189;DHT22;9219;50.396;8.546;2023-05-10T15:37:48;15.60;99.90
18189;DHT22;9219;50.396;8.546;2023-05-10T15:42:56;15.60;99.90
18189;DHT22;9219;50.396;8.546;2023-05-10T15:45:24;15.30;99.90
18189;DHT22;9219;50.396;8.546;2023-05-10T15:47:52;15.40;99.90
18189;DHT22;9219;50.396;8.546;2023-05-10T15:50:21;15.60;99.90
18189;DHT22;9219;50.396;8.546;2023-05-10T15:52:48;15.60;99.90
18189;DHT22;9219;50.396;8.546;2023-05-10T15:55:15;15.30;99.90
18189;DHT22;9219;50.396;8.546;2023-05-10T15:57:44;15.10;99.90
18189;DHT22;9219;50.396;8.546;2023-05-10T16:02:52;15.10;99.90
18189;DHT22;9219;50.396;8.546;2023-05-10T16:05:20;15.30;99.90
18189;DHT22;9219;50.396;8.546;2023-05-10T16:07:47;15.20;99.90
18189;DHT22;9219;50.396;8.546;2023-05-10T16:10:16;15.10;99.90
18189;DHT22;9219;50.396;8.546;2023-05-10T16:12:44;15.70;99.90
18189;DHT22;9219;50.396;8.546;2023-05-10T16:15:12;15.80;99.90
18189;DHT22;9219;50.396;8.546;2023-05-10T16:17:40;15.90;99.90
18189;DHT22;9219;50.396;8.546;2023-05-10T16:20:11;16.20;99.90
18189;DHT22;9219;50.396;8.546;2023-05-10T16:27:42;16.20;99.90
18189;DHT22;9219;50.396;8.546;2023-05-10T16:30:11;16.20;99.90
18189;DHT22;9219;50.396;8.546;2023-05-10T16:32:38;16.50;99.90
18189;DHT22;9219;50.396;8.546;2023-05-10T16:35:07;16.40;99.90
18189;DHT22;9219;50.396;8.546;2023-05-10T16:37:35;16.00;99.90
18189;DHT22;9219;50.396;8.546;2023-05-10T16:40:03;16.00;99.90
18189;DHT22;9219;50.396;8.546;2023-05-10T16:42:31;16.10;99.90
18189;DHT22;9219;50.396;8.546;2023-05-10T16:47:54;16.10;99.90
18189;DHT22;9219;50.396;8.546;2023-05-10T16:50:22;15.90;99.90
18189;DHT22;9219;50.396;8.546;2023-05-10T16:52:51;16.20;99.90
18189;DHT22;9219;50.396;8.546;2023-05-10T16:55:18;16.30;99.90
18189;DHT22;9219;50.396;8.546;2023-05-10T16:57:47;16.40;99.90
18189;DHT22;9219;50.396;8.546;2023-05-10T17:00:16;16.30;99.90
18189;DHT22;9219;50.396;8.546;2023-05-10T17:02:44;16.10;99.90
18189;DHT22;9219;50.396;8.546;2023-05-10T17:07:53;16.10;99.90
18189;DHT22;9219;50.396;8.546;2023-05-10T17:10:21;16.10;99.90
18189;DHT22;9219;50.396;8.546;2023-05-10T17:12:48;16.30;99.90
18189;DHT22;9219;50.396;8.546;2023-05-10T17:15:17;16.40;99.90
18189;DHT22;9219;50.396;8.546;2023-05-10T17:17:46;15.90;99.90
18189;DHT22;9219;50.396;8.546;2023-05-10T17:20:13;16.30;99.90
18189;DHT22;9219;50.396;8.546;2023-05-10T17:22:41;16.40;99.90
18189;DHT22;9219;50.396;8.546;2023-05-10T17:32:07;16.70;99.90
18189;DHT22;9219;50.396;8.546;2023-05-10T17:34:36;16.70;99.90
18189;DHT22;9219;50.396;8.546;2023-05-10T17:37:03;16.70;99.90
18189;DHT22;9219;50.396;8.546;2023-05-10T17:39:33;16.90;99.90
18189;DHT22;9219;50.396;8.546;2023-05-10T17:42:00;16.70;99.90
18189;DHT22;9219;50.396;8.546;2023-05-10T17:44:30;16.50;99.90
18189;DHT22;9219;50.396;8.546;2023-05-10T17:46:57;16.30;99.90
18189;DHT22;9219;50.396;8.546;2023-05-10T17:52:34;16.00;99.90
18189;DHT22;9219;50.396;8.546;2023-05-10T17:55:02;16.00;99.90
18189;DHT22;9219;50.396;8.546;2023-05-10T17:57:29;15.90;99.90
18189;DHT22;9219;50.396;8.546;2023-05-10T17:59:57;15.90;99.90
18189;DHT22;9219;50.396;8.546;2023-05-10T18:02:25;16.00;99.90
18189;DHT22;9219;50.396;8.546;2023-05-10T18:04:53;15.90;99.90
18189;DHT22;9219;50.396;8.546;2023-05-10T18:07:24;15.70;99.90
18189;DHT22;9219;50.396;8.546;2023-05-10T18:17:18;15.30;99.90
18189;DHT22;9219;50.396;8.546;2023-05-10T18:19:46;16.00;99.90
18189;DHT22;9219;50.396;8.546;2023-05-10T18:22:15;15.90;99.90
18189;DHT22;9219;50.396;8.546;2023-05-10T18:24:46;16.00;99.90
18189;DHT22;9219;50.396;8.546;2023-05-10T18:27:17;15.70;99.90
18189;DHT22;9219;50.396;8.546;2023-05-10T18:29:49;15.50;99.90
18189;DHT22;9219;50.396;8.546;2023-05-10T18:32:23;15.80;99.90
18189;DHT22;9219;50.396;8.546;2023-05-10T18:37:36;15.30;99.90
18189;DHT22;9219;50.396;8.546;2023-05-10T18:40:08;15.20;99.90
18189;DHT22;9219;50.396;8.546;2023-05-10T18:42:41;15.00;99.90
18189;DHT22;9219;50.396;8.546;2023-05-10T18:45:13;15.40;99.90
18189;DHT22;9219;50.396;8.546;2023-05-10T18:47:43;15.70;99.90
18189;DHT22;9219;50.396;8.546;2023-05-10T18:50:11;15.70;99.90
18189;DHT22;9219;50.396;8.546;2023-05-10T18:52:46;15.50;99.90
18189;DHT22;9219;50.396;8.546;2023-05-10T19:00:18;15.00;99.90
18189;DHT22;9219;50.396;8.546;2023-05-10T19:02:46;14.10;99.90
18189;DHT22;9219;50.396;8.546;2023-05-10T19:05:15;13.60;99.90
18189;DHT22;9219;50.396;8.546;2023-05-10T19:07:46;13.50;99.90
18189;DHT22;9219;50.396;8.546;2023-05-10T19:10:15;13.50;99.90
18189;DHT22;9219;50.396;8.546;2023-05-10T19:12:44;14.00;99.90
18189;DHT22;9219;50.396;8.546;2023-05-10T19:15:15;14.10;99.90
18189;DHT22;9219;50.396;8.546;2023-05-10T19:22:17;14.40;99.90
18189;DHT22;9219;50.396;8.546;2023-05-10T19:25:11;14.60;99.90
18189;DHT22;9219;50.396;8.546;2023-05-10T19:27:47;14.90;99.90
18189;DHT22;9219;50.396;8.546;2023-05-10T19:30:18;14.90;99.90